Time;durP1;ratioP1;P1;durP2;ratioP2;P2;SDS_P1;SDS_P2;PMS_P1;PMS_P2;Temp;Humidity;BMP_temperature;BMP_pressure;BME280_temperature;BME280_humidity;BME280_pressure;Samples;Min_cycle;Max_cycle;Signal;HPM_P1;HPM_P2
2022/11/14 00:01:48;;;;;;;;;;;3.20;99.90;;;;;;2604125;54;20016;31
2022/11/14 00:04:44;;;;;;;;;;;3.10;99.90;;;;;;2604021;54;20057;31
2022/11/14 00:07:38;;;;;;;;;;;3.10;99.90;;;;;;2702767;39;20432;31
2022/11/14 00:10:31;;;;;;;;;;;3.10;99.90;;;;;;2604113;54;20771;31
2022/11/14 00:13:24;;;;;;;;;;;3.10;99.90;;;;;;2604119;54;19941;31
2022/11/14 00:16:19;;;;;;;;;;;3.00;99.90;;;;;;2604017;54;19956;31
2022/11/14 00:19:12;;;;;;;;;;;3.00;99.90;;;;;;2603990;54;19942;31
2022/11/14 00:22:10;;;;;;;;;;;3.00;99.90;;;;;;2604095;54;19941;31
2022/11/14 00:25:02;;;;;;;;;;;3.00;99.90;;;;;;2604089;54;19957;31
2022/11/14 00:27:58;;;;;;;;;;;3.00;99.90;;;;;;2603947;54;20069;31
2022/11/14 00:30:54;;;;;;;;;;;3.00;99.90;;;;;;2604041;54;20749;31
2022/11/14 00:33:47;;;;;;;;;;;3.00;99.90;;;;;;2603956;54;20017;31
2022/11/14 00:36:41;;;;;;;;;;;3.00;99.90;;;;;;2604040;54;19961;31
2022/11/14 00:39:37;;;;;;;;;;;3.00;99.90;;;;;;2604074;54;19941;31
2022/11/14 00:42:33;;;;;;;;;;;3.00;99.90;;;;;;2603922;54;19957;31
2022/11/14 00:45:27;;;;;;;;;;;3.00;99.90;;;;;;2604072;54;20061;31
2022/11/14 00:48:22;;;;;;;;;;;3.00;99.90;;;;;;2604012;54;19942;31
2022/11/14 00:54:09;;;;;;;;;;;3.00;99.90;;;;;;2603889;54;20758;31
2022/11/14 00:57:09;;;;;;;;;;;3.00;99.90;;;;;;2603910;54;20037;31
2022/11/14 01:00:02;;;;;;;;;;;3.00;99.90;;;;;;2603639;54;19942;31
2022/11/14 01:02:57;;;;;;;;;;;3.00;99.90;;;;;;2603820;54;20033;31
2022/11/14 01:05:48;;;;;;;;;;;3.00;99.90;;;;;;2604042;54;20034;31
2022/11/14 01:08:41;;;;;;;;;;;3.00;99.90;;;;;;2603815;54;19937;31
2022/11/14 01:11:35;;;;;;;;;;;3.00;99.90;;;;;;2603944;54;20049;31
2022/11/14 01:14:32;;;;;;;;;;;3.00;99.90;;;;;;2603902;54;19985;31
2022/11/14 01:17:27;;;;;;;;;;;3.00;99.90;;;;;;2603927;54;19964;31
2022/11/14 01:20:22;;;;;;;;;;;3.00;99.90;;;;;;2604039;54;19960;31
2022/11/14 01:23:15;;;;;;;;;;;3.00;99.90;;;;;;2603919;54;20714;31
2022/11/14 01:26:08;;;;;;;;;;;3.00;99.90;;;;;;2603807;54;19985;31
2022/11/14 01:29:02;;;;;;;;;;;3.00;99.90;;;;;;2603950;54;20031;31
2022/11/14 01:31:59;;;;;;;;;;;3.00;99.90;;;;;;2603945;54;19957;31
2022/11/14 01:34:52;;;;;;;;;;;3.00;99.90;;;;;;2603934;54;19942;31
2022/11/14 01:37:49;;;;;;;;;;;3.10;99.90;;;;;;2603780;54;20030;31
2022/11/14 01:40:43;;;;;;;;;;;3.00;99.90;;;;;;2603877;54;19957;31
2022/11/14 01:43:36;;;;;;;;;;;3.10;99.90;;;;;;2603841;54;20801;31
2022/11/14 01:46:30;;;;;;;;;;;3.00;99.90;;;;;;2603781;54;19960;31
2022/11/14 01:49:27;;;;;;;;;;;3.10;99.90;;;;;;2603789;54;20012;31
2022/11/14 01:52:19;;;;;;;;;;;3.10;99.90;;;;;;2603726;54;19996;31
2022/11/14 01:55:16;;;;;;;;;;;3.10;99.90;;;;;;2603641;54;20847;31
2022/11/14 01:58:10;;;;;;;;;;;3.10;99.90;;;;;;2603778;54;19984;31
2022/11/14 02:01:05;;;;;;;;;;;3.10;99.90;;;;;;2603685;54;20014;31
2022/11/14 02:03:57;;;;;;;;;;;3.10;99.90;;;;;;2603800;54;19990;31
2022/11/14 02:06:52;;;;;;;;;;;3.10;99.90;;;;;;2603893;54;19942;31
2022/11/14 02:09:46;;;;;;;;;;;3.20;99.90;;;;;;2603813;54;19941;31
2022/11/14 02:12:39;;;;;;;;;;;3.10;99.90;;;;;;2603627;54;19973;31
2022/11/14 02:15:32;;;;;;;;;;;3.10;99.90;;;;;;2603643;54;19941;31
2022/11/14 02:18:26;;;;;;;;;;;3.20;99.90;;;;;;2603578;54;19957;31
2022/11/14 02:21:25;;;;;;;;;;;3.20;99.90;;;;;;2603603;54;19962;31
2022/11/14 02:24:20;;;;;;;;;;;3.20;99.90;;;;;;2603653;54;19993;31
2022/11/14 02:27:14;;;;;;;;;;;3.20;99.90;;;;;;2603597;54;19958;31
2022/11/14 02:30:07;;;;;;;;;;;3.20;99.90;;;;;;2603532;54;20017;31
2022/11/14 02:33:03;;;;;;;;;;;3.30;99.90;;;;;;2603652;54;20825;31
2022/11/14 02:36:02;;;;;;;;;;;3.30;99.90;;;;;;2603526;54;19962;31
2022/11/14 02:39:02;;;;;;;;;;;3.30;99.90;;;;;;2603604;54;19941;31
2022/11/14 02:41:58;;;;;;;;;;;3.30;99.90;;;;;;2603422;54;19941;31
2022/11/14 02:44:53;;;;;;;;;;;3.30;99.90;;;;;;2603497;54;20768;31
2022/11/14 02:47:49;;;;;;;;;;;3.30;99.90;;;;;;2603489;54;19977;31
2022/11/14 02:50:41;;;;;;;;;;;3.30;99.90;;;;;;2603464;54;20076;31
2022/11/14 02:53:37;;;;;;;;;;;3.40;99.90;;;;;;2603481;54;21465;31
2022/11/14 02:56:32;;;;;;;;;;;3.30;99.90;;;;;;2603482;54;20058;31
2022/11/14 02:59:27;;;;;;;;;;;3.30;99.90;;;;;;2603489;54;19957;31
2022/11/14 03:02:21;;;;;;;;;;;3.30;99.90;;;;;;2603572;54;20032;31
2022/11/14 03:05:14;;;;;;;;;;;3.30;99.90;;;;;;2603264;54;20488;31
2022/11/14 03:08:07;;;;;;;;;;;3.40;99.90;;;;;;2603606;54;20084;31
2022/11/14 03:11:05;;;;;;;;;;;3.40;99.90;;;;;;2603357;54;19993;31
2022/11/14 03:14:00;;;;;;;;;;;3.40;99.90;;;;;;2603642;54;20778;31
2022/11/14 03:16:56;;;;;;;;;;;3.40;99.90;;;;;;2701850;39;21443;31
2022/11/14 03:19:52;;;;;;;;;;;3.40;99.90;;;;;;2603254;54;19969;31
2022/11/14 03:22:46;;;;;;;;;;;3.40;99.90;;;;;;2603428;54;20777;31
2022/11/14 03:25:39;;;;;;;;;;;3.40;99.90;;;;;;2604218;54;20770;31
2022/11/14 03:28:35;;;;;;;;;;;3.40;99.90;;;;;;2604217;54;20050;31
2022/11/14 03:31:32;;;;;;;;;;;3.40;99.90;;;;;;2604206;54;19961;31
2022/11/14 03:34:28;;;;;;;;;;;3.40;99.90;;;;;;2604313;54;20001;31
2022/11/14 03:37:20;;;;;;;;;;;3.40;99.90;;;;;;2604081;54;19962;31
2022/11/14 03:40:14;;;;;;;;;;;3.40;99.90;;;;;;2702547;39;20397;31
2022/11/14 03:43:06;;;;;;;;;;;3.40;99.90;;;;;;2604196;54;19941;31
2022/11/14 03:46:01;;;;;;;;;;;3.40;99.90;;;;;;2604162;54;20783;31
2022/11/14 03:48:53;;;;;;;;;;;3.40;99.90;;;;;;2604289;54;20065;31
2022/11/14 03:51:50;;;;;;;;;;;3.50;99.90;;;;;;2604178;54;20045;31
2022/11/14 03:54:42;;;;;;;;;;;3.50;99.90;;;;;;2604143;54;20021;31
2022/11/14 03:57:39;;;;;;;;;;;3.50;99.90;;;;;;2604104;54;20779;31
2022/11/14 04:00:32;;;;;;;;;;;3.50;99.90;;;;;;2604121;54;20755;31
2022/11/14 04:03:26;;;;;;;;;;;3.60;99.90;;;;;;2604077;54;19985;31
2022/11/14 04:06:20;;;;;;;;;;;3.60;99.90;;;;;;2604153;54;20762;31
2022/11/14 04:09:16;;;;;;;;;;;3.70;99.90;;;;;;2604045;54;19987;31
2022/11/14 04:12:08;;;;;;;;;;;3.70;99.90;;;;;;2604064;54;20781;31
2022/11/14 04:15:06;;;;;;;;;;;3.70;99.90;;;;;;2604061;54;20017;31
2022/11/14 04:18:00;;;;;;;;;;;3.70;99.90;;;;;;2604049;54;20009;31
2022/11/14 04:20:53;;;;;;;;;;;3.70;99.90;;;;;;2702495;39;20381;31
2022/11/14 04:23:46;;;;;;;;;;;3.70;99.90;;;;;;2702406;39;20421;31
2022/11/14 04:26:42;;;;;;;;;;;3.70;99.90;;;;;;2603877;54;20751;31
2022/11/14 04:29:35;;;;;;;;;;;3.70;99.90;;;;;;2603961;54;20746;31
2022/11/14 04:32:28;;;;;;;;;;;3.80;99.90;;;;;;2604102;54;19975;31
2022/11/14 04:35:24;;;;;;;;;;;3.80;99.90;;;;;;2604054;54;19957;31
2022/11/14 04:38:17;;;;;;;;;;;3.80;99.90;;;;;;2603997;54;19942;31
2022/11/14 04:41:12;;;;;;;;;;;3.90;99.90;;;;;;2603882;54;20780;31
2022/11/14 04:44:08;;;;;;;;;;;3.90;99.90;;;;;;2603907;54;19942;31
2022/11/14 04:46:59;;;;;;;;;;;3.90;99.90;;;;;;2603901;54;19965;31
2022/11/14 04:49:55;;;;;;;;;;;3.90;99.90;;;;;;2702563;39;21522;31
2022/11/14 04:52:48;;;;;;;;;;;3.90;99.90;;;;;;2603899;54;20016;31
2022/11/14 04:55:41;;;;;;;;;;;3.90;99.90;;;;;;2603962;54;20761;31
2022/11/14 04:58:34;;;;;;;;;;;4.00;99.90;;;;;;2603959;54;19941;31
2022/11/14 05:01:31;;;;;;;;;;;4.00;99.90;;;;;;2603737;54;19941;31
2022/11/14 05:04:24;;;;;;;;;;;4.00;99.90;;;;;;2603708;54;20807;31
2022/11/14 05:07:20;;;;;;;;;;;4.00;99.90;;;;;;2603678;54;20789;31
2022/11/14 05:10:14;;;;;;;;;;;4.00;99.90;;;;;;2603958;54;19998;31
2022/11/14 05:13:09;;;;;;;;;;;4.00;99.90;;;;;;2603768;54;20009;31
2022/11/14 05:16:04;;;;;;;;;;;4.00;99.90;;;;;;2603836;54;19941;31
2022/11/14 05:18:58;;;;;;;;;;;4.00;99.90;;;;;;2603821;54;20789;31
2022/11/14 05:21:52;;;;;;;;;;;4.00;99.90;;;;;;2603502;54;20704;31
2022/11/14 05:24:46;;;;;;;;;;;4.00;99.90;;;;;;2603901;54;19942;31
2022/11/14 05:27:39;;;;;;;;;;;4.00;99.90;;;;;;2603795;54;20045;31
2022/11/14 05:30:38;;;;;;;;;;;4.10;99.90;;;;;;2603785;54;19957;31
2022/11/14 05:33:31;;;;;;;;;;;4.00;99.90;;;;;;2603831;54;20014;31
2022/11/14 05:36:26;;;;;;;;;;;4.10;99.90;;;;;;2603900;54;19997;31
2022/11/14 05:39:22;;;;;;;;;;;4.10;99.90;;;;;;2603897;54;20719;31
2022/11/14 05:42:16;;;;;;;;;;;4.10;99.90;;;;;;2603746;54;19966;31
2022/11/14 05:45:10;;;;;;;;;;;4.10;99.90;;;;;;2603892;54;19957;31
2022/11/14 05:48:03;;;;;;;;;;;4.10;99.90;;;;;;2603473;54;19961;31
2022/11/14 05:50:57;;;;;;;;;;;4.10;99.90;;;;;;2603858;54;19942;31
2022/11/14 05:53:55;;;;;;;;;;;4.10;99.90;;;;;;2603749;54;20008;31
2022/11/14 05:56:48;;;;;;;;;;;4.20;99.90;;;;;;2603831;54;20808;31
2022/11/14 05:59:43;;;;;;;;;;;4.20;99.90;;;;;;2603511;54;20046;31
2022/11/14 06:02:35;;;;;;;;;;;4.20;99.90;;;;;;2603510;54;21584;31
2022/11/14 06:05:28;;;;;;;;;;;4.10;99.90;;;;;;2603629;54;20741;31
2022/11/14 06:08:21;;;;;;;;;;;4.20;99.90;;;;;;2603693;54;19942;31
2022/11/14 06:11:17;;;;;;;;;;;4.20;99.90;;;;;;2603509;54;20773;31
2022/11/14 06:14:11;;;;;;;;;;;4.20;99.90;;;;;;2603552;54;19941;31
2022/11/14 06:17:08;;;;;;;;;;;4.10;99.90;;;;;;2603670;54;19941;31
2022/11/14 06:20:01;;;;;;;;;;;4.10;99.90;;;;;;2603775;54;20821;31
2022/11/14 06:22:57;;;;;;;;;;;4.10;99.90;;;;;;2603472;54;20030;31
2022/11/14 06:25:50;;;;;;;;;;;4.10;99.90;;;;;;2603537;54;20012;31
2022/11/14 06:28:48;;;;;;;;;;;4.20;99.90;;;;;;2603484;54;19941;31
2022/11/14 06:31:41;;;;;;;;;;;4.20;99.90;;;;;;2603528;54;19965;31
2022/11/14 06:34:34;;;;;;;;;;;4.20;99.90;;;;;;2603652;54;21457;31
2022/11/14 06:37:30;;;;;;;;;;;4.20;99.90;;;;;;2603515;54;19950;31
2022/11/14 06:40:24;;;;;;;;;;;4.20;99.90;;;;;;2603615;54;19960;31
2022/11/14 06:43:16;;;;;;;;;;;4.20;99.90;;;;;;2603362;54;20738;31
2022/11/14 06:46:14;;;;;;;;;;;4.20;99.90;;;;;;2603449;54;20730;31
2022/11/14 06:49:07;;;;;;;;;;;4.20;99.90;;;;;;2702152;39;20921;31
2022/11/14 06:52:01;;;;;;;;;;;4.20;99.90;;;;;;2603505;54;20730;31
2022/11/14 06:54:57;;;;;;;;;;;4.20;99.90;;;;;;2603491;54;19941;31
2022/11/14 06:57:54;;;;;;;;;;;4.20;99.90;;;;;;2603341;54;20024;31
2022/11/14 07:00:47;;;;;;;;;;;4.20;99.90;;;;;;2603487;54;19992;31
2022/11/14 07:03:46;;;;;;;;;;;4.20;99.90;;;;;;2603458;54;19958;31
2022/11/14 07:06:39;;;;;;;;;;;4.30;99.90;;;;;;2603432;54;20515;31
2022/11/14 07:09:32;;;;;;;;;;;4.30;99.90;;;;;;2603188;54;19957;31
2022/11/14 07:12:25;;;;;;;;;;;4.30;99.90;;;;;;2603575;54;19969;31
2022/11/14 07:15:18;;;;;;;;;;;4.30;99.90;;;;;;2603443;54;19953;31
2022/11/14 07:18:13;;;;;;;;;;;4.30;99.90;;;;;;2603444;54;20008;31
2022/11/14 07:21:12;;;;;;;;;;;4.30;99.90;;;;;;2701859;39;21364;31
2022/11/14 07:24:06;;;;;;;;;;;4.30;99.90;;;;;;2603249;54;20730;31
2022/11/14 07:27:07;;;;;;;;;;;4.40;99.90;;;;;;2603238;54;20757;31
2022/11/14 07:30:00;;;;;;;;;;;4.40;99.90;;;;;;2603423;54;19977;31
2022/11/14 07:32:55;;;;;;;;;;;4.40;99.90;;;;;;2603348;54;20746;31
2022/11/14 07:35:50;;;;;;;;;;;4.50;99.90;;;;;;2603446;54;19982;31
2022/11/14 07:38:47;;;;;;;;;;;4.50;99.90;;;;;;2603365;54;20805;31
2022/11/14 07:41:40;;;;;;;;;;;4.60;99.90;;;;;;2701617;39;20416;31
2022/11/14 07:44:33;;;;;;;;;;;4.60;99.90;;;;;;2602835;54;20745;31
2022/11/14 07:47:27;;;;;;;;;;;4.60;99.90;;;;;;2603313;54;19949;31
2022/11/14 07:50:20;;;;;;;;;;;4.60;99.90;;;;;;2603186;54;20790;31
2022/11/14 07:53:16;;;;;;;;;;;4.60;99.90;;;;;;2603279;54;20747;31
2022/11/14 07:56:12;;;;;;;;;;;4.60;99.90;;;;;;2603027;54;19996;31
2022/11/14 07:59:07;;;;;;;;;;;4.70;99.90;;;;;;2603321;54;20072;31
2022/11/14 08:02:01;;;;;;;;;;;5.50;99.90;;;;;;2603019;54;20822;31
2022/11/14 08:04:54;;;;;;;;;;;4.80;99.90;;;;;;2603351;54;19942;31
2022/11/14 08:07:48;;;;;;;;;;;4.90;99.90;;;;;;2603127;54;20002;31
2022/11/14 08:10:43;;;;;;;;;;;4.90;99.90;;;;;;2603796;54;19962;31
2022/11/14 08:13:43;;;;;;;;;;;4.90;99.90;;;;;;2603935;54;20013;31
2022/11/14 08:16:37;;;;;;;;;;;4.90;99.90;;;;;;2603989;54;19961;31
2022/11/14 08:19:29;;;;;;;;;;;5.00;99.90;;;;;;2604016;54;19941;31
2022/11/14 08:22:22;;;;;;;;;;;5.00;99.90;;;;;;2603877;54;20704;31
2022/11/14 08:25:17;;;;;;;;;;;5.00;99.90;;;;;;2604140;54;19942;31
2022/11/14 08:28:10;;;;;;;;;;;5.10;99.90;;;;;;2603925;54;19957;31
2022/11/14 08:31:09;;;;;;;;;;;5.10;99.90;;;;;;2603970;54;20866;31
2022/11/14 08:34:02;;;;;;;;;;;5.10;99.90;;;;;;2603893;54;20048;31
2022/11/14 08:37:02;;;;;;;;;;;5.20;99.90;;;;;;2603896;54;19942;31
2022/11/14 08:39:56;;;;;;;;;;;5.20;99.90;;;;;;2603946;54;20052;31
2022/11/14 08:42:49;;;;;;;;;;;5.60;99.90;;;;;;2603927;54;20721;31
2022/11/14 08:45:43;;;;;;;;;;;5.20;99.90;;;;;;2604062;54;19996;31
2022/11/14 08:48:40;;;;;;;;;;;5.20;99.90;;;;;;2603723;54;20745;31
2022/11/14 08:51:35;;;;;;;;;;;5.30;99.90;;;;;;2603790;54;19942;31
2022/11/14 08:54:32;;;;;;;;;;;5.30;99.90;;;;;;2603932;54;19942;31
2022/11/14 08:57:25;;;;;;;;;;;5.30;99.90;;;;;;2603916;54;19958;31
2022/11/14 09:00:21;;;;;;;;;;;5.40;99.90;;;;;;2603858;54;20042;31
2022/11/14 09:03:15;;;;;;;;;;;5.70;99.90;;;;;;2603848;54;20008;31
2022/11/14 09:06:09;;;;;;;;;;;5.50;99.90;;;;;;2603735;54;20747;31
2022/11/14 09:09:04;;;;;;;;;;;5.50;99.90;;;;;;2603713;54;20855;31
2022/11/14 09:12:00;;;;;;;;;;;5.50;99.90;;;;;;2603900;54;19942;31
2022/11/14 09:14:52;;;;;;;;;;;5.50;99.90;;;;;;2603914;54;19942;31
2022/11/14 09:17:45;;;;;;;;;;;5.60;99.90;;;;;;2603648;54;20797;31
2022/11/14 09:20:39;;;;;;;;;;;5.70;99.90;;;;;;2603632;54;19942;31
2022/11/14 09:23:33;;;;;;;;;;;5.70;99.90;;;;;;2603724;54;20809;31
2022/11/14 09:26:29;;;;;;;;;;;5.60;99.90;;;;;;2603750;54;20772;31
2022/11/14 09:29:22;;;;;;;;;;;5.70;99.90;;;;;;2603747;54;20001;31
2022/11/14 09:32:15;;;;;;;;;;;5.70;99.90;;;;;;2603779;54;19949;31
2022/11/14 09:35:09;;;;;;;;;;;5.70;99.90;;;;;;2603500;54;19961;31
2022/11/14 09:38:02;;;;;;;;;;;5.70;99.90;;;;;;2603856;54;19957;31
2022/11/14 09:40:56;;;;;;;;;;;5.70;99.90;;;;;;2603754;54;20051;31
2022/11/14 09:43:55;;;;;;;;;;;5.80;99.90;;;;;;2603558;54;19976;31
2022/11/14 09:46:49;;;;;;;;;;;5.80;99.90;;;;;;2603510;54;19961;31
2022/11/14 09:49:43;;;;;;;;;;;5.90;99.90;;;;;;2603925;54;19941;31
2022/11/14 09:52:37;;;;;;;;;;;5.90;99.90;;;;;;2603657;54;19989;31
2022/11/14 09:55:31;;;;;;;;;;;6.00;99.90;;;;;;2603654;54;19988;31
2022/11/14 09:58:27;;;;;;;;;;;6.00;99.90;;;;;;2603669;54;19942;31
2022/11/14 10:01:25;;;;;;;;;;;6.10;99.90;;;;;;2603690;54;19997;31
2022/11/14 10:04:20;;;;;;;;;;;6.10;99.90;;;;;;2603477;54;21575;31
2022/11/14 10:07:17;;;;;;;;;;;6.10;99.90;;;;;;2603606;54;19941;31
2022/11/14 10:10:08;;;;;;;;;;;6.10;99.90;;;;;;2603534;54;21625;31
2022/11/14 10:13:06;;;;;;;;;;;6.10;99.90;;;;;;2603674;54;20757;31
2022/11/14 10:16:00;;;;;;;;;;;6.20;99.90;;;;;;2603610;54;19957;31
2022/11/14 10:19:00;;;;;;;;;;;6.30;99.90;;;;;;2603511;54;20749;31
2022/11/14 10:21:56;;;;;;;;;;;6.30;99.90;;;;;;2603581;54;20046;31
2022/11/14 10:25:06;;;;;;;;;;;6.40;99.90;;;;;;2603406;54;20819;31
2022/11/14 10:28:06;;;;;;;;;;;6.50;99.90;;;;;;2603485;54;19961;31
2022/11/14 10:31:00;;;;;;;;;;;6.60;99.90;;;;;;2603660;54;19942;31
2022/11/14 10:34:00;;;;;;;;;;;6.70;99.90;;;;;;2603418;54;20001;31
2022/11/14 10:36:55;;;;;;;;;;;6.80;99.90;;;;;;2603580;54;20013;31
2022/11/14 10:39:48;;;;;;;;;;;6.90;99.90;;;;;;2603555;54;20778;31
2022/11/14 10:42:42;;;;;;;;;;;7.00;99.90;;;;;;2603507;54;20817;31
2022/11/14 10:45:36;;;;;;;;;;;6.90;99.90;;;;;;2603475;54;19957;31
2022/11/14 10:48:33;;;;;;;;;;;7.00;99.90;;;;;;2603487;54;19962;31
2022/11/14 10:51:30;;;;;;;;;;;6.90;99.90;;;;;;2603578;54;19942;31
2022/11/14 10:54:28;;;;;;;;;;;6.90;99.90;;;;;;2603401;54;20742;31
2022/11/14 10:57:21;;;;;;;;;;;7.00;99.90;;;;;;2603512;54;20832;31
2022/11/14 11:00:17;;;;;;;;;;;7.10;99.90;;;;;;2603447;54;20033;31
2022/11/14 11:03:13;;;;;;;;;;;7.00;99.90;;;;;;2603310;54;20809;31
2022/11/14 11:06:04;;;;;;;;;;;7.00;99.90;;;;;;2701843;39;21073;31
2022/11/14 11:12:10;;;;;;;;;;;7.10;99.90;;;;;;2603418;54;19970;31
2022/11/14 11:17:55;;;;;;;;;;;7.30;99.90;;;;;;2603478;54;20049;31
2022/11/14 11:20:49;;;;;;;;;;;7.50;99.90;;;;;;2603343;54;20741;31
2022/11/14 11:23:49;;;;;;;;;;;7.40;99.90;;;;;;2603292;54;19942;31
2022/11/14 11:26:44;;;;;;;;;;;7.50;99.90;;;;;;2603456;54;19957;31
2022/11/14 11:29:44;;;;;;;;;;;7.60;99.90;;;;;;2603355;54;19965;31
2022/11/14 11:32:38;;;;;;;;;;;8.60;99.90;;;;;;2603307;54;19978;31
2022/11/14 11:35:31;;;;;;;;;;;7.70;99.90;;;;;;2603250;54;19957;31
2022/11/14 11:38:24;;;;;;;;;;;7.80;99.90;;;;;;2701812;39;21437;31
2022/11/14 11:41:19;;;;;;;;;;;7.80;99.90;;;;;;2603385;54;21555;31
2022/11/14 11:44:35;;;;;;;;;;;7.80;99.90;;;;;;2603140;54;19970;31
2022/11/14 11:47:31;;;;;;;;;;;7.90;99.90;;;;;;2604098;54;20848;31
2022/11/14 11:50:24;;;;;;;;;;;7.90;99.90;;;;;;2604066;54;21515;31
2022/11/14 11:53:19;;;;;;;;;;;7.90;99.90;;;;;;2604108;54;20017;31
2022/11/14 11:56:14;;;;;;;;;;;8.00;99.90;;;;;;2604080;54;20735;31
2022/11/14 11:59:12;;;;;;;;;;;8.00;99.90;;;;;;2603776;54;20054;31
2022/11/14 12:02:16;;;;;;;;;;;8.90;99.90;;;;;;2603811;54;19941;31
2022/11/14 12:05:14;;;;;;;;;;;8.10;99.90;;;;;;2603905;54;20013;31
2022/11/14 12:08:10;;;;;;;;;;;8.20;99.90;;;;;;2604058;54;19992;31
2022/11/14 12:11:06;;;;;;;;;;;8.30;99.90;;;;;;2603861;54;19961;31
2022/11/14 12:14:02;;;;;;;;;;;8.40;99.90;;;;;;2603975;54;20491;31
2022/11/14 12:17:00;;;;;;;;;;;8.50;99.90;;;;;;2604092;54;20741;31
2022/11/14 12:19:55;;;;;;;;;;;8.60;99.90;;;;;;2604052;54;20003;31
2022/11/14 12:22:57;;;;;;;;;;;8.70;99.90;;;;;;2603909;54;20850;31
2022/11/14 12:26:00;;;;;;;;;;;8.70;99.90;;;;;;2603839;54;20753;31
2022/11/14 12:31:47;;;;;;;;;;;8.90;99.90;;;;;;2603999;54;20006;31
2022/11/14 12:34:40;;;;;;;;;;;9.00;99.90;;;;;;2603800;54;20796;31
2022/11/14 12:37:36;;;;;;;;;;;9.10;99.90;;;;;;2603862;54;20786;31
2022/11/14 12:40:32;;;;;;;;;;;9.20;99.90;;;;;;2603893;54;19941;31
2022/11/14 12:43:28;;;;;;;;;;;9.30;99.90;;;;;;2603807;54;19961;31
2022/11/14 12:46:29;;;;;;;;;;;9.30;99.90;;;;;;2702390;39;20453;31
2022/11/14 12:49:38;;;;;;;;;;;9.40;99.90;;;;;;2603821;54;20741;31
2022/11/14 12:52:44;;;;;;;;;;;9.50;99.90;;;;;;2603909;54;20743;31
2022/11/14 12:55:52;;;;;;;;;;;9.60;99.90;;;;;;2603707;54;20718;31
2022/11/14 12:58:57;;;;;;;;;;;9.60;99.90;;;;;;2603989;54;20045;31
2022/11/14 13:01:49;;;;;;;;;;;9.70;99.90;;;;;;2603910;54;20790;31
2022/11/14 13:04:45;;;;;;;;;;;9.80;99.90;;;;;;2603950;54;20857;31
2022/11/14 13:07:41;;;;;;;;;;;9.80;99.90;;;;;;2603688;54;20817;31
2022/11/14 13:10:38;;;;;;;;;;;9.80;99.90;;;;;;2603633;54;20729;31
2022/11/14 13:23:00;;;;;;;;;;;10.00;99.90;;;;;;2603620;54;20796;31
2022/11/14 13:25:58;;;;;;;;;;;10.00;99.90;;;;;;2603665;54;19935;31
2022/11/14 13:28:51;;;;;;;;;;;10.10;99.90;;;;;;2603689;54;19946;31
2022/11/14 13:31:53;;;;;;;;;;;10.10;99.90;;;;;;2603826;54;21321;31
2022/11/14 13:34:47;;;;;;;;;;;10.10;99.90;;;;;;2603638;54;20767;31
2022/11/14 13:37:48;;;;;;;;;;;10.10;99.90;;;;;;2603603;54;19996;31
2022/11/14 13:40:43;;;;;;;;;;;10.20;99.90;;;;;;2603700;54;19997;31
2022/11/14 13:43:39;;;;;;;;;;;10.20;99.90;;;;;;2603581;54;20045;31
2022/11/14 13:46:35;;;;;;;;;;;10.20;99.90;;;;;;2603709;54;20783;31
2022/11/14 13:49:39;;;;;;;;;;;10.20;99.90;;;;;;2603668;54;19942;31
2022/11/14 13:52:34;;;;;;;;;;;10.20;99.90;;;;;;2603716;54;19934;31
2022/11/14 13:55:31;;;;;;;;;;;10.20;99.90;;;;;;2603619;54;19993;31
2022/11/14 13:58:27;;;;;;;;;;;10.30;99.90;;;;;;2603668;54;19978;31
2022/11/14 14:01:26;;;;;;;;;;;10.30;99.90;;;;;;2603553;54;19993;31
2022/11/14 14:04:22;;;;;;;;;;;10.30;99.90;;;;;;2603683;54;19934;31
2022/11/14 14:07:20;;;;;;;;;;;10.30;99.90;;;;;;2603584;54;20739;31
2022/11/14 14:10:26;;;;;;;;;;;10.30;99.90;;;;;;2603582;54;19941;31
2022/11/14 14:13:22;;;;;;;;;;;10.30;99.90;;;;;;2603732;54;19942;31
2022/11/14 14:16:17;;;;;;;;;;;10.30;99.90;;;;;;2603739;54;19942;31
2022/11/14 14:19:13;;;;;;;;;;;10.30;99.90;;;;;;2603486;54;19997;31
2022/11/14 14:22:05;;;;;;;;;;;10.30;99.90;;;;;;2603713;54;20678;31
2022/11/14 14:25:02;;;;;;;;;;;10.30;99.90;;;;;;2603372;54;19935;31
2022/11/14 14:27:57;;;;;;;;;;;10.30;99.90;;;;;;2603723;54;19938;31
2022/11/14 14:31:03;;;;;;;;;;;10.30;99.90;;;;;;2603694;54;19934;31
2022/11/14 14:33:56;;;;;;;;;;;10.20;99.90;;;;;;2603519;54;19934;31
2022/11/14 14:36:52;;;;;;;;;;;10.30;99.90;;;;;;2603595;54;19934;31
2022/11/14 14:39:49;;;;;;;;;;;10.30;99.90;;;;;;2603341;54;19982;31
2022/11/14 14:42:48;;;;;;;;;;;10.30;99.90;;;;;;2603502;54;19939;31
2022/11/14 14:45:47;;;;;;;;;;;10.20;99.90;;;;;;2603442;54;19942;31
2022/11/14 14:48:38;;;;;;;;;;;10.20;99.90;;;;;;2603573;54;19938;31
2022/11/14 14:51:32;;;;;;;;;;;10.10;99.90;;;;;;2603531;54;19942;31
2022/11/14 14:54:27;;;;;;;;;;;10.10;99.90;;;;;;2603392;54;20768;31
2022/11/14 14:57:20;;;;;;;;;;;10.00;99.90;;;;;;2603461;54;20054;31
2022/11/14 15:00:25;;;;;;;;;;;10.00;99.90;;;;;;2603403;54;20867;31
2022/11/14 15:03:18;;;;;;;;;;;9.90;99.90;;;;;;2603490;54;20750;31
2022/11/14 15:06:15;;;;;;;;;;;9.90;99.90;;;;;;2603273;54;19958;31
2022/11/14 15:09:10;;;;;;;;;;;9.90;99.90;;;;;;2603430;54;19941;31
2022/11/14 15:12:03;;;;;;;;;;;9.80;99.90;;;;;;2603355;54;19984;31
2022/11/14 15:14:57;;;;;;;;;;;9.80;99.90;;;;;;2603409;54;19941;31
2022/11/14 15:17:53;;;;;;;;;;;9.70;99.90;;;;;;2603431;54;20012;31
2022/11/14 15:20:44;;;;;;;;;;;9.60;99.90;;;;;;2603962;54;20797;31
2022/11/14 15:23:38;;;;;;;;;;;9.60;99.90;;;;;;2604096;54;19942;31
2022/11/14 15:26:31;;;;;;;;;;;9.50;99.90;;;;;;2603984;54;20705;31
2022/11/14 15:29:24;;;;;;;;;;;9.50;99.90;;;;;;2603949;54;20740;31
2022/11/14 15:32:18;;;;;;;;;;;9.40;99.90;;;;;;2604097;54;19941;31
2022/11/14 15:35:12;;;;;;;;;;;9.40;99.90;;;;;;2603918;54;19941;31
2022/11/14 15:38:05;;;;;;;;;;;9.30;99.90;;;;;;2603981;54;19961;31
2022/11/14 15:41:42;;;;;;;;;;;9.30;99.90;;;;;;2603900;54;20732;31
2022/11/14 15:44:36;;;;;;;;;;;9.30;99.90;;;;;;2603975;54;20016;31
2022/11/14 15:47:29;;;;;;;;;;;9.20;99.90;;;;;;2604086;54;19996;31
2022/11/14 15:50:27;;;;;;;;;;;9.20;99.90;;;;;;2603956;54;20798;31
2022/11/14 15:53:23;;;;;;;;;;;9.20;99.90;;;;;;2604077;54;20847;31
2022/11/14 15:56:16;;;;;;;;;;;9.20;99.90;;;;;;2603954;54;20832;31
2022/11/14 15:59:11;;;;;;;;;;;9.30;99.90;;;;;;2603867;54;19973;31
2022/11/14 16:02:06;;;;;;;;;;;9.30;99.90;;;;;;2604061;54;20043;31
2022/11/14 16:05:01;;;;;;;;;;;9.30;99.90;;;;;;2604089;54;20012;31
2022/11/14 16:07:58;;;;;;;;;;;9.30;99.90;;;;;;2603934;54;20012;31
2022/11/14 16:10:56;;;;;;;;;;;9.30;99.90;;;;;;2604109;54;20834;31
2022/11/14 16:13:50;;;;;;;;;;;9.30;99.90;;;;;;2604034;54;20800;31
2022/11/14 16:16:42;;;;;;;;;;;9.30;99.90;;;;;;2604018;54;20047;31
2022/11/14 16:19:36;;;;;;;;;;;9.30;99.90;;;;;;2603689;54;20787;31
2022/11/14 16:22:28;;;;;;;;;;;9.20;99.90;;;;;;2604053;54;19957;31
2022/11/14 16:25:24;;;;;;;;;;;9.20;99.90;;;;;;2604013;54;19969;31
2022/11/14 16:28:19;;;;;;;;;;;9.20;99.90;;;;;;2603924;54;19981;31
2022/11/14 16:31:18;;;;;;;;;;;9.20;99.90;;;;;;2603821;54;19942;31
2022/11/14 16:34:16;;;;;;;;;;;9.20;99.90;;;;;;2604018;54;19954;31
2022/11/14 16:37:15;;;;;;;;;;;9.10;99.90;;;;;;2603931;54;20030;31
2022/11/14 16:40:10;;;;;;;;;;;9.10;99.90;;;;;;2603737;54;19957;31
2022/11/14 16:43:07;;;;;;;;;;;9.00;99.90;;;;;;2603814;54;19962;31
2022/11/14 16:46:00;;;;;;;;;;;9.00;99.90;;;;;;2603814;54;20052;31
2022/11/14 16:48:53;;;;;;;;;;;8.90;99.90;;;;;;2603989;54;20781;31
2022/11/14 16:51:48;;;;;;;;;;;8.90;99.90;;;;;;2603672;54;20697;31
2022/11/14 16:54:42;;;;;;;;;;;8.90;99.90;;;;;;2603904;54;20794;31
2022/11/14 16:57:35;;;;;;;;;;;8.90;99.90;;;;;;2603891;54;19963;31
2022/11/14 17:00:31;;;;;;;;;;;8.80;99.90;;;;;;2603776;54;19961;31
2022/11/14 17:03:25;;;;;;;;;;;9.40;99.90;;;;;;2603876;54;20729;31
2022/11/14 17:06:20;;;;;;;;;;;8.80;99.90;;;;;;2603781;54;19961;31
2022/11/14 17:09:13;;;;;;;;;;;8.70;99.90;;;;;;2603813;54;20769;31
2022/11/14 17:12:07;;;;;;;;;;;8.70;99.90;;;;;;2603984;54;20865;31
2022/11/14 17:15:01;;;;;;;;;;;8.80;99.90;;;;;;2603712;54;19942;31
2022/11/14 17:17:57;;;;;;;;;;;8.70;99.90;;;;;;2603788;54;20829;31
2022/11/14 17:20:52;;;;;;;;;;;8.70;99.90;;;;;;2603820;54;19961;31
2022/11/14 17:23:44;;;;;;;;;;;8.70;99.90;;;;;;2603797;54;19957;31
2022/11/14 17:26:39;;;;;;;;;;;8.70;99.90;;;;;;2603781;54;20722;31
2022/11/14 17:29:30;;;;;;;;;;;8.60;99.90;;;;;;2603566;54;19957;31
2022/11/14 17:32:23;;;;;;;;;;;8.60;99.90;;;;;;2603688;54;20028;31
2022/11/14 17:35:19;;;;;;;;;;;8.50;99.90;;;;;;2603625;54;19960;31
2022/11/14 17:38:12;;;;;;;;;;;8.40;99.90;;;;;;2603673;54;19942;31
2022/11/14 17:41:07;;;;;;;;;;;8.30;99.90;;;;;;2603827;54;19941;31
2022/11/14 17:44:02;;;;;;;;;;;9.10;99.90;;;;;;2603508;54;20795;31
2022/11/14 17:46:55;;;;;;;;;;;8.30;99.90;;;;;;2603660;54;20862;31
2022/11/14 17:49:50;;;;;;;;;;;8.20;99.90;;;;;;2603675;54;20734;31